Time;durP1;ratioP1;P1;durP2;ratioP2;P2;SDS_P1;SDS_P2;PMS_P1;PMS_P2;Temp;Humidity;BMP_temperature;BMP_pressure;BME280_temperature;BME280_humidity;BME280_pressure;Samples;Min_cycle;Max_cycle;Signal;HPM_P1;HPM_P2
2022/05/01 00:01:37;;;;;;;11.55;8.20;;;;;;;;;;5032894;28;20566;-81
2022/05/01 00:04:03;;;;;;;12.63;7.65;;;11.50;99.90;;;;;;5026919;28;20044;-85
2022/05/01 00:06:31;;;;;;;12.10;8.02;;;;;;;;;;5048349;28;20041;-82
2022/05/01 00:08:58;;;;;;;11.65;8.60;;;;;;;;;;5040376;28;20029;-81
2022/05/01 00:11:24;;;;;;;10.15;7.90;;;11.40;99.90;;;;;;5043440;28;20036;-82
2022/05/01 00:13:50;;;;;;;10.10;8.25;;;11.30;99.90;;;;;;5028478;28;20398;-85
2022/05/01 00:16:16;;;;;;;10.65;8.13;;;;;;;;;;5044279;28;20105;-83
2022/05/01 00:18:42;;;;;;;10.38;8.10;;;;;;;;;;5015723;28;20119;-83
2022/05/01 00:21:08;;;;;;;10.85;8.40;;;11.10;99.90;;;;;;5044718;28;20540;-83
2022/05/01 00:23:34;;;;;;;13.13;8.40;;;11.10;99.90;;;;;;5046981;28;20067;-81
2022/05/01 00:26:02;;;;;;;13.23;8.77;;;10.90;99.90;;;;;;5040955;28;20068;-84
2022/05/01 00:28:29;;;;;;;11.63;8.07;;;10.90;99.90;;;;;;5025414;28;20056;-82
2022/05/01 00:30:56;;;;;;;11.50;7.78;;;10.80;99.90;;;;;;5042544;28;20029;-83
2022/05/01 00:38:50;;;;;;;12.82;9.20;;;10.50;99.90;;;;;;5037443;28;20700;-84
2022/05/01 00:41:16;;;;;;;14.13;9.40;;;10.50;99.90;;;;;;5027630;28;20112;-79
2022/05/01 00:44:05;;;;;;;13.35;9.23;;;10.60;99.90;;;;;;5028686;28;20025;-84
2022/05/01 00:46:37;;;;;;;12.85;9.43;;;10.40;99.90;;;;;;5014914;28;20043;-82
2022/05/01 00:49:05;;;;;;;11.75;8.95;;;10.40;99.90;;;;;;5031583;28;20037;-85
2022/05/01 00:51:34;;;;;;;13.07;10.02;;;10.30;99.90;;;;;;5041276;28;20021;-83
2022/05/01 00:54:00;;;;;;;15.50;9.98;;;10.20;99.90;;;;;;5029340;28;20040;-83
2022/05/01 00:56:29;;;;;;;12.70;9.85;;;11.10;99.90;;;;;;5040611;28;20029;-83
2022/05/01 00:58:54;;;;;;;16.83;9.82;;;10.10;99.90;;;;;;5043223;28;20029;-82
2022/05/01 01:01:21;;;;;;;19.45;9.95;;;10.00;99.90;;;;;;5049611;28;20025;-82
2022/05/01 01:03:47;;;;;;;12.10;8.95;;;9.90;99.90;;;;;;5043784;28;20033;-84
2022/05/01 01:06:13;;;;;;;14.13;9.57;;;;;;;;;;5034875;28;20418;-83
2022/05/01 01:08:39;;;;;;;14.25;9.50;;;;;;;;;;5024461;28;20106;-84
2022/05/01 01:11:05;;;;;;;12.35;8.60;;;;;;;;;;5038881;28;20028;-83
2022/05/01 01:13:33;;;;;;;17.02;9.07;;;;;;;;;;5030248;28;20114;-84
2022/05/01 01:15:59;;;;;;;10.75;8.02;;;;;;;;;;5048707;28;20024;-82
2022/05/01 01:18:26;;;;;;;16.02;8.75;;;9.80;99.90;;;;;;5027335;28;20117;-81
2022/05/01 01:20:52;;;;;;;12.95;7.72;;;9.80;99.90;;;;;;5038708;28;20498;-82
2022/05/01 01:23:20;;;;;;;13.60;8.68;;;9.80;99.90;;;;;;5023521;28;20030;-81
2022/05/01 01:25:47;;;;;;;10.50;8.00;;;9.60;99.90;;;;;;5028727;28;20174;-84
2022/05/01 01:28:14;;;;;;;10.07;8.02;;;9.70;99.90;;;;;;5026756;28;20057;-81
2022/05/01 01:33:28;;;;;;;12.77;8.40;;;9.60;99.90;;;;;;5042827;28;20040;-83
2022/05/01 01:35:55;;;;;;;13.25;8.82;;;9.50;99.90;;;;;;5038980;28;20017;-80
2022/05/01 01:38:21;;;;;;;14.80;8.57;;;9.50;99.90;;;;;;5023193;28;20067;-82
2022/05/01 01:40:52;;;;;;;12.80;9.15;;;9.50;99.90;;;;;;5026513;28;20583;-82
2022/05/01 01:43:23;;;;;;;11.52;8.27;;;9.50;99.90;;;;;;5026681;28;20417;-83
2022/05/01 01:45:48;;;;;;;15.10;8.93;;;9.50;99.90;;;;;;5041320;28;20479;-83
2022/05/01 01:48:17;;;;;;;11.25;8.82;;;9.50;99.90;;;;;;5025464;28;20048;-84
2022/05/01 01:50:44;;;;;;;11.90;8.75;;;9.40;99.90;;;;;;5025037;28;20650;-84
2022/05/01 01:53:11;;;;;;;14.25;8.90;;;9.60;99.90;;;;;;5041317;28;20025;-85
2022/05/01 01:55:38;;;;;;;12.10;8.77;;;10.10;99.90;;;;;;5030605;28;20021;-84
2022/05/01 01:58:05;;;;;;;12.55;8.90;;;9.40;99.90;;;;;;5053398;28;20023;-85
2022/05/01 02:00:30;;;;;;;13.35;9.52;;;9.40;99.90;;;;;;5036358;28;20044;-84
2022/05/01 02:03:00;;;;;;;12.48;9.55;;;9.40;99.90;;;;;;5046370;28;20017;-86
2022/05/01 02:05:27;;;;;;;11.38;8.25;;;9.40;99.90;;;;;;5057611;28;20033;-84
2022/05/01 02:07:53;;;;;;;16.60;8.93;;;9.40;99.90;;;;;;5045567;28;20051;-86
2022/05/01 02:10:19;;;;;;;12.82;9.30;;;;;;;;;;5057815;28;20025;-86
2022/05/01 02:12:45;;;;;;;10.98;9.27;;;;;;;;;;5060650;28;20040;-82
2022/05/01 02:15:11;;;;;;;13.48;9.43;;;;;;;;;;5044052;28;20041;-84
2022/05/01 02:17:40;;;;;;;12.60;8.68;;;9.50;99.90;;;;;;5056548;28;20025;-82
2022/05/01 02:20:08;;;;;;;11.32;9.25;;;9.50;99.90;;;;;;5058588;28;20037;-81
2022/05/01 02:22:34;;;;;;;14.85;9.00;;;;;;;;;;5062018;28;20017;-85
2022/05/01 02:24:59;;;;;;;14.55;8.98;;;;;;;;;;5053123;28;20066;-79
2022/05/01 02:27:25;;;;;;;14.25;9.10;;;9.50;99.90;;;;;;5043255;28;20037;-84
2022/05/01 02:29:51;;;;;;;12.50;8.63;;;;;;;;;;5029638;28;20052;-83
2022/05/01 02:32:17;;;;;;;14.73;9.27;;;9.50;99.90;;;;;;5043122;28;20035;-81
2022/05/01 02:34:44;;;;;;;11.90;8.80;;;;;;;;;;5031044;28;20021;-84
2022/05/01 02:37:10;;;;;;;12.52;8.90;;;9.50;99.90;;;;;;5046686;28;20035;-85
2022/05/01 02:39:36;;;;;;;12.55;8.82;;;;;;;;;;5051609;28;20056;-82
2022/05/01 02:42:02;;;;;;;14.93;8.90;;;9.40;99.90;;;;;;5047450;28;20040;-82
2022/05/01 02:44:28;;;;;;;10.73;8.82;;;;;;;;;;5027674;28;20037;-83
2022/05/01 02:46:55;;;;;;;12.38;8.73;;;9.50;99.90;;;;;;5040109;28;20033;-85
2022/05/01 02:49:21;;;;;;;18.08;9.85;;;9.40;99.90;;;;;;5040821;28;20037;-81
2022/05/01 02:51:48;;;;;;;13.75;8.73;;;9.50;99.90;;;;;;5028095;28;20035;-83
2022/05/01 02:54:14;;;;;;;14.65;8.60;;;9.90;99.90;;;;;;5051978;28;20025;-84
2022/05/01 02:56:40;;;;;;;13.45;9.02;;;;;;;;;;5032025;28;20036;-85
2022/05/01 02:59:09;;;;;;;12.52;9.65;;;9.50;99.90;;;;;;5045212;28;20113;-80
2022/05/01 03:01:38;;;;;;;17.30;9.82;;;9.50;99.90;;;;;;5043004;28;20026;-83
2022/05/01 03:04:04;;;;;;;15.10;10.43;;;10.40;99.90;;;;;;5023841;28;20041;-83
2022/05/01 03:06:30;;;;;;;18.70;9.82;;;9.50;99.90;;;;;;5047541;28;20033;-84
2022/05/01 03:08:55;;;;;;;16.88;10.48;;;9.40;99.90;;;;;;5039377;28;20048;-83
2022/05/01 03:11:21;;;;;;;17.35;10.40;;;9.50;99.90;;;;;;5045429;28;20053;-82
2022/05/01 03:13:47;;;;;;;15.82;10.55;;;11.40;99.90;;;;;;5042193;28;20030;-81
2022/05/01 03:16:13;;;;;;;17.27;11.40;;;9.40;99.90;;;;;;5045133;28;20072;-83
2022/05/01 03:24:07;;;;;;;15.63;10.70;;;9.40;99.90;;;;;;5050230;28;20052;-82
2022/05/01 03:26:33;;;;;;;15.88;10.57;;;10.70;99.90;;;;;;5045893;28;20029;-82
2022/05/01 03:28:59;;;;;;;17.48;12.43;;;9.30;99.90;;;;;;5043067;28;20035;-82
2022/05/01 03:31:27;;;;;;;16.45;10.48;;;9.30;99.90;;;;;;5034849;28;20032;-79
2022/05/01 03:33:57;;;;;;;15.45;10.15;;;9.30;99.90;;;;;;5043374;28;20037;-84
2022/05/01 03:36:22;;;;;;;14.15;10.85;;;9.30;99.90;;;;;;5028993;28;20039;-82
2022/05/01 03:38:48;;;;;;;15.82;10.75;;;;;;;;;;5025141;28;20115;-79
2022/05/01 03:41:16;;;;;;;18.85;11.68;;;9.30;99.90;;;;;;5030590;28;20032;-83
2022/05/01 03:43:43;;;;;;;21.92;11.35;;;9.30;99.90;;;;;;5028103;28;20052;-83
2022/05/01 03:46:10;;;;;;;16.95;11.00;;;;;;;;;;5030500;28;20048;-80
2022/05/01 03:48:36;;;;;;;12.73;10.73;;;;;;;;;;5043171;28;20067;-81
2022/05/01 03:51:02;;;;;;;15.57;10.73;;;9.30;99.90;;;;;;5027455;28;20116;-81
2022/05/01 03:53:29;;;;;;;21.67;12.30;;;9.30;99.90;;;;;;5028157;28;20136;-81
2022/05/01 03:55:55;;;;;;;13.50;9.85;;;9.30;99.90;;;;;;5029494;28;20026;-81
2022/05/01 03:58:21;;;;;;;16.33;10.85;;;;;;;;;;5042207;28;20039;-80
2022/05/01 04:00:48;;;;;;;15.30;10.68;;;9.30;99.90;;;;;;5029304;28;20025;-81
2022/05/01 04:03:17;;;;;;;15.07;11.32;;;9.20;99.90;;;;;;5045120;28;20031;-83
2022/05/01 04:05:44;;;;;;;17.87;10.87;;;10.10;99.90;;;;;;5034895;28;20033;-80
2022/05/01 04:08:10;;;;;;;16.02;10.18;;;9.30;99.90;;;;;;5033913;28;20040;-86
2022/05/01 04:10:41;;;;;;;13.43;10.15;;;9.30;99.90;;;;;;5051889;28;20093;-83
2022/05/01 04:13:10;;;;;;;;;;;9.30;99.90;;;;;;5037769;28;20029;-82
2022/05/01 04:15:37;;;;;;;12.10;9.60;;;12.20;99.90;;;;;;5054281;28;19908;-83
2022/05/01 04:18:04;;;;;;;14.68;10.50;;;9.20;99.90;;;;;;5022226;28;20533;-82
2022/05/01 04:20:29;;;;;;;14.00;10.35;;;9.20;99.90;;;;;;5058703;28;20033;-83
2022/05/01 04:22:56;;;;;;;15.43;10.52;;;9.20;99.90;;;;;;5041311;28;20040;-82
2022/05/01 04:25:29;;;;;;;14.77;11.05;;;9.20;99.90;;;;;;5041884;28;20175;-81
2022/05/01 04:28:01;;;;;;;15.70;11.13;;;9.30;99.90;;;;;;5035947;28;20052;-79
2022/05/01 04:30:27;;;;;;;17.10;11.07;;;9.40;99.90;;;;;;5056899;28;20057;-84
2022/05/01 04:33:02;;;;;;;14.60;10.80;;;10.00;99.90;;;;;;5041341;28;20032;-83
2022/05/01 04:35:40;;;;;;;13.85;10.77;;;9.40;99.90;;;;;;5058425;28;20029;-83
2022/05/01 04:38:12;;;;;;;14.70;10.35;;;9.40;99.90;;;;;;5034515;28;22254;-86
2022/05/01 04:40:50;;;;;;;14.05;10.75;;;9.40;99.90;;;;;;5023877;28;20056;-84
2022/05/01 04:43:20;;;;;;;14.43;11.18;;;9.40;99.90;;;;;;5054782;28;20036;-84
2022/05/01 04:45:47;;;;;;;;;;;11.00;99.90;;;;;;5052833;28;20029;-82
2022/05/01 04:48:13;;;;;;;14.48;11.23;;;9.40;99.90;;;;;;5039190;28;20336;-83
2022/05/01 04:50:40;;;;;;;16.98;11.82;;;9.40;99.90;;;;;;5041285;28;20045;-84
2022/05/01 04:53:09;;;;;;;15.85;11.48;;;10.80;99.90;;;;;;5041275;28;20021;-84
2022/05/01 04:55:38;;;;;;;17.20;11.68;;;12.10;99.90;;;;;;5055289;28;22768;-82
2022/05/01 04:58:04;;;;;;;19.23;11.75;;;9.30;99.90;;;;;;5039898;28;20025;-86
2022/05/01 05:00:30;;;;;;;16.50;11.77;;;;;;;;;;5038405;28;20402;-85
2022/05/01 05:02:56;;;;;;;16.88;11.68;;;9.40;99.90;;;;;;5060445;28;20025;-83
2022/05/01 05:05:24;;;;;;;17.23;11.88;;;9.30;99.90;;;;;;5067916;28;20040;-85
2022/05/01 05:07:49;;;;;;;15.13;11.10;;;9.60;99.90;;;;;;5049779;28;20033;-86
2022/05/01 05:10:17;;;;;;;15.85;11.70;;;9.40;99.90;;;;;;5054079;28;20055;-85
2022/05/01 05:12:46;;;;;;;13.57;10.75;;;9.40;99.90;;;;;;5053455;28;20009;-85
2022/05/01 05:15:15;;;;;;;18.88;11.50;;;10.30;99.90;;;;;;5071342;28;20092;-85
2022/05/01 05:17:42;;;;;;;15.07;11.07;;;9.40;99.90;;;;;;5049890;28;20016;-78
2022/05/01 05:20:09;;;;;;;16.40;12.00;;;9.40;99.90;;;;;;5054834;28;20021;-84
2022/05/01 05:22:36;;;;;;;16.05;10.55;;;9.40;99.90;;;;;;5067664;28;20033;-81
2022/05/01 05:25:03;;;;;;;17.45;11.75;;;9.50;99.90;;;;;;5055606;28;20029;-87
2022/05/01 05:27:29;;;;;;;18.98;11.63;;;9.50;99.90;;;;;;5052414;28;20035;-83
2022/05/01 05:29:56;;;;;;;16.13;11.13;;;9.50;99.90;;;;;;5058623;28;20029;-82
2022/05/01 05:32:23;;;;;;;17.90;12.70;;;9.50;99.90;;;;;;5052147;28;20051;-83
2022/05/01 05:34:49;;;;;;;14.50;10.70;;;9.50;99.90;;;;;;5057400;28;20040;-85
2022/05/01 05:37:15;;;;;;;17.42;11.77;;;9.50;99.90;;;;;;5057716;28;20020;-84
2022/05/01 05:39:41;;;;;;;16.33;11.25;;;9.50;99.90;;;;;;5069000;28;20424;-83
2022/05/01 05:42:07;;;;;;;17.60;11.88;;;9.60;99.90;;;;;;5059386;28;20013;-84
2022/05/01 05:44:33;;;;;;;16.45;11.45;;;;;;;;;;5046728;28;20032;-85
2022/05/01 05:46:59;;;;;;;15.32;11.20;;;9.70;99.90;;;;;;5046556;28;20473;-85
2022/05/01 05:49:25;;;;;;;15.82;11.02;;;;;;;;;;5065257;28;20036;-86
2022/05/01 05:51:51;;;;;;;16.08;10.85;;;;;;;;;;5045834;28;20029;-87
2022/05/01 05:54:16;;;;;;;14.00;10.73;;;10.00;99.90;;;;;;5062620;28;20028;-85
2022/05/01 05:56:42;;;;;;;15.90;11.00;;;10.10;99.90;;;;;;5044186;28;20017;-85
2022/05/01 05:59:11;;;;;;;17.58;11.25;;;10.10;99.90;;;;;;5058082;28;20029;-84
2022/05/01 06:01:37;;;;;;;14.82;10.98;;;10.20;99.90;;;;;;5047439;28;20052;-83
2022/05/01 06:04:04;;;;;;;13.27;11.10;;;10.10;99.90;;;;;;5048136;28;20017;-83
2022/05/01 06:06:30;;;;;;;12.85;11.02;;;10.20;99.90;;;;;;5060122;28;20076;-83
2022/05/01 06:08:55;;;;;;;13.85;10.77;;;10.40;99.90;;;;;;5045460;28;20024;-83
2022/05/01 06:11:21;;;;;;;17.42;10.75;;;;;;;;;;5045233;28;20039;-85
2022/05/01 06:13:47;;;;;;;15.85;10.95;;;10.80;99.90;;;;;;5058505;28;20056;-83
2022/05/01 06:16:13;;;;;;;15.63;10.02;;;10.80;99.90;;;;;;5046371;28;20059;-87
2022/05/01 06:18:38;;;;;;;17.65;10.43;;;11.20;99.90;;;;;;5054930;28;20342;-83
2022/05/01 06:21:04;;;;;;;12.60;9.65;;;12.50;99.90;;;;;;5059068;28;20064;-82
2022/05/01 06:23:30;;;;;;;12.02;9.68;;;11.60;99.90;;;;;;5061327;28;20024;-86
2022/05/01 06:25:56;;;;;;;13.48;10.07;;;;;;;;;;5059937;28;20044;-84
2022/05/01 06:28:23;;;;;;;16.52;10.75;;;11.60;99.90;;;;;;5059747;28;20037;-80
2022/05/01 06:30:50;;;;;;;13.35;9.93;;;11.30;99.90;;;;;;5059432;28;20022;-85
2022/05/01 06:33:19;;;;;;;16.00;10.63;;;11.30;99.90;;;;;;5061655;28;20027;-84
2022/05/01 06:35:49;;;;;;;13.55;10.48;;;13.20;99.90;;;;;;5055405;28;20363;-83
2022/05/01 06:38:14;;;;;;;12.02;10.18;;;11.40;99.90;;;;;;5047258;28;20047;-83
2022/05/01 06:40:43;;;;;;;16.17;11.27;;;11.20;99.90;;;;;;5041039;28;20190;-79
2022/05/01 06:43:10;;;;;;;14.60;10.20;;;13.20;99.90;;;;;;5043218;28;20101;-83
2022/05/01 06:45:35;;;;;;;15.30;10.60;;;11.30;99.90;;;;;;5043209;28;20032;-82
2022/05/01 06:48:01;;;;;;;16.98;10.40;;;;;;;;;;5062902;28;20025;-83
2022/05/01 06:50:28;;;;;;;13.88;10.73;;;11.40;99.90;;;;;;5047362;28;20037;-82
2022/05/01 06:52:54;;;;;;;13.93;10.68;;;11.40;99.90;;;;;;5061522;28;20085;-83
2022/05/01 06:55:23;;;;;;;15.70;10.48;;;11.60;99.90;;;;;;5063438;28;20036;-82
2022/05/01 06:57:48;;;;;;;14.23;10.15;;;11.80;99.90;;;;;;5064645;28;20029;-84
2022/05/01 07:00:15;;;;;;;15.10;10.07;;;;;;;;;;5063613;28;20043;-83
2022/05/01 07:02:45;;;;;;;16.10;10.25;;;11.90;99.90;;;;;;5066354;28;20025;-80
2022/05/01 07:05:11;;;;;;;14.45;9.90;;;;;;;;;;5065686;28;20033;-85
2022/05/01 07:07:38;;;;;;;16.70;10.32;;;;;;;;;;5060827;28;20017;-85
2022/05/01 07:10:04;;;;;;;15.85;10.60;;;;;;;;;;5066040;28;20033;-79
2022/05/01 07:12:30;;;;;;;13.98;10.10;;;;;;;;;;5044448;28;20209;-81
2022/05/01 07:14:56;;;;;;;14.73;9.90;;;;;;;;;;5069920;28;20116;-84
2022/05/01 07:17:22;;;;;;;14.98;9.20;;;;;;;;;;5066031;28;20039;-85
2022/05/01 07:19:49;;;;;;;13.95;9.15;;;;;;;;;;5071635;28;20032;-86
2022/05/01 07:22:16;;;;;;;12.32;9.48;;;12.30;99.90;;;;;;5055699;28;20049;-83
2022/05/01 07:24:43;;;;;;;11.52;8.70;;;12.30;99.90;;;;;;5066248;28;20028;-83
2022/05/01 07:27:09;;;;;;;12.43;8.75;;;12.30;99.90;;;;;;5047080;28;20028;-84
2022/05/01 07:29:35;;;;;;;16.20;8.60;;;14.30;99.90;;;;;;5064545;28;20021;-84
2022/05/01 07:32:01;;;;;;;10.52;8.10;;;13.00;99.90;;;;;;5052426;28;20025;-83
2022/05/01 07:34:27;;;;;;;14.88;7.80;;;12.70;99.90;;;;;;5051910;28;20079;-84
2022/05/01 07:36:53;;;;;;;13.00;9.10;;;12.80;99.90;;;;;;5065291;28;20037;-82
2022/05/01 07:39:19;;;;;;;14.88;8.40;;;;;;;;;;5062800;28;20041;-83
2022/05/01 07:41:45;;;;;;;12.43;7.50;;;;;;;;;;5060112;28;20033;-81
2022/05/01 07:44:11;;;;;;;12.02;7.32;;;;;;;;;;5053742;28;21194;-83
2022/05/01 07:46:41;;;;;;;10.98;7.70;;;12.80;99.90;;;;;;5031925;28;20176;-87
2022/05/01 07:49:08;;;;;;;11.77;7.57;;;12.90;99.90;;;;;;5038735;28;20513;-83
2022/05/01 07:51:35;;;;;;;10.88;8.02;;;12.80;99.90;;;;;;5054981;28;20047;-83
2022/05/01 07:54:01;;;;;;;9.77;8.15;;;12.80;99.90;;;;;;5053882;28;20029;-84
2022/05/01 07:56:27;;;;;;;12.55;7.65;;;12.90;99.90;;;;;;5049637;28;20417;-86
2022/05/01 07:58:53;;;;;;;11.32;7.90;;;12.60;99.90;;;;;;5053452;28;20554;-85
2022/05/01 08:01:19;;;;;;;11.77;8.55;;;12.30;99.90;;;;;;5035891;28;20043;-84
2022/05/01 08:06:29;;;;;;;12.63;8.77;;;12.20;99.90;;;;;;5045960;28;20754;-84
2022/05/01 08:08:55;;;;;;;19.70;10.48;;;;;;;;;;5040794;28;20127;-85
2022/05/01 08:11:21;;;;;;;15.63;10.35;;;12.30;99.90;;;;;;5053180;28;20025;-84
2022/05/01 08:13:47;;;;;;;14.95;9.07;;;12.30;99.90;;;;;;5048321;28;20033;-84
2022/05/01 08:16:13;;;;;;;15.75;8.80;;;12.20;99.90;;;;;;5055090;28;20032;-84
2022/05/01 08:21:23;;;;;;;12.38;8.00;;;12.00;99.90;;;;;;5071926;28;20087;-84
2022/05/01 08:23:49;;;;;;;14.80;8.70;;;11.90;99.90;;;;;;5056319;28;20017;-84
2022/05/01 08:26:17;;;;;;;10.88;7.63;;;12.00;99.90;;;;;;5040397;28;20437;-82
2022/05/01 08:28:44;;;;;;;12.27;8.05;;;12.20;99.90;;;;;;5048779;28;20025;-81
2022/05/01 08:31:10;;;;;;;10.43;7.55;;;12.00;99.90;;;;;;5021768;28;20034;-83
2022/05/01 08:33:36;;;;;;;12.75;7.80;;;12.00;99.90;;;;;;5044412;28;20080;-83
2022/05/01 08:36:04;;;;;;;12.90;7.70;;;12.50;99.90;;;;;;5038978;28;20037;-83
2022/05/01 08:38:30;;;;;;;10.85;7.68;;;12.20;99.90;;;;;;5036535;28;20036;-84
2022/05/01 08:40:56;;;;;;;15.70;8.82;;;12.40;99.90;;;;;;5041686;28;20028;-82
2022/05/01 08:43:24;;;;;;;10.82;7.28;;;12.50;99.90;;;;;;5042317;28;20029;-84
2022/05/01 08:45:53;;;;;;;13.52;8.65;;;;;;;;;;5044466;28;20116;-84
2022/05/01 08:48:34;;;;;;;10.65;7.60;;;12.50;99.90;;;;;;5029411;28;20034;-83
2022/05/01 08:51:01;;;;;;;10.05;6.78;;;12.40;99.90;;;;;;5038460;28;20033;-84
2022/05/01 08:53:29;;;;;;;11.18;7.93;;;12.50;99.90;;;;;;5042178;28;20039;-80
2022/05/01 08:55:56;;;;;;;11.25;7.30;;;12.60;99.90;;;;;;5045060;28;20071;-81
2022/05/01 08:58:22;;;;;;;10.18;6.82;;;;;;;;;;5041795;28;20036;-82
2022/05/01 09:00:49;;;;;;;11.65;6.95;;;12.80;99.90;;;;;;5029277;28;20032;-83
2022/05/01 09:03:16;;;;;;;9.10;6.85;;;15.10;99.90;;;;;;5032236;28;20040;-82
2022/05/01 09:05:42;;;;;;;8.73;7.13;;;;;;;;;;5046224;28;20120;-85
2022/05/01 09:08:08;;;;;;;9.98;6.93;;;12.40;99.90;;;;;;5051014;28;20029;-85
2022/05/01 09:10:33;;;;;;;10.70;7.28;;;13.50;99.90;;;;;;5044662;28;20032;-81
2022/05/01 09:12:59;;;;;;;9.82;6.55;;;;;;;;;;5032990;28;20026;-80
2022/05/01 09:15:46;;;;;;;12.75;7.13;;;13.50;99.70;;;;;;5041877;28;20057;-85
2022/05/01 09:18:14;;;;;;;9.50;6.22;;;14.70;99.70;;;;;;5037480;28;20029;-82
2022/05/01 09:21:01;;;;;;;10.50;6.78;;;13.70;99.20;;;;;;5048461;28;20588;-83
2022/05/01 09:23:40;;;;;;;10.10;6.55;;;13.90;98.70;;;;;;5046713;28;20395;-81
2022/05/01 09:26:08;;;;;;;10.02;6.70;;;14.20;98.40;;;;;;5045895;28;20476;-83
2022/05/01 09:28:36;;;;;;;8.88;6.47;;;15.70;99.00;;;;;;5032766;28;20033;-82
2022/05/01 09:31:02;;;;;;;11.32;6.95;;;14.20;97.90;;;;;;5045768;28;20037;-83
2022/05/01 09:33:29;;;;;;;10.13;7.18;;;14.20;98.20;;;;;;5030892;28;20033;-84
2022/05/01 09:35:57;;;;;;;9.00;6.72;;;14.30;98.00;;;;;;5044146;28;20029;-85
2022/05/01 09:38:27;;;;;;;11.55;6.53;;;14.40;97.70;;;;;;5007750;28;20028;-83
2022/05/01 09:41:01;;;;;;;9.63;6.70;;;14.50;97.10;;;;;;5029722;28;20041;-83
2022/05/01 09:43:45;;;;;;;10.98;6.63;;;14.60;97.20;;;;;;5041164;28;20037;-86
2022/05/01 09:46:27;;;;;;;11.57;6.43;;;14.50;97.10;;;;;;5015546;28;20502;-82
2022/05/01 09:49:07;;;;;;;9.82;6.82;;;14.80;96.60;;;;;;5031015;28;20038;-83
2022/05/01 09:51:35;;;;;;;10.38;7.45;;;14.80;96.80;;;;;;5032363;28;20060;-80
2022/05/01 09:54:08;;;;;;;9.38;6.50;;;15.00;96.20;;;;;;5046577;28;20036;-82
2022/05/01 09:56:45;;;;;;;12.25;7.15;;;16.50;96.80;;;;;;5050528;28;20024;-81
2022/05/01 09:59:11;;;;;;;11.80;6.30;;;;;;;;;;5057921;28;20021;-83
2022/05/01 10:01:37;;;;;;;11.27;6.72;;;;;;;;;;5041092;28;20037;-83
2022/05/01 10:04:03;;;;;;;8.23;6.30;;;15.30;95.40;;;;;;5063200;28;20033;-82
2022/05/01 10:06:31;;;;;;;11.07;6.22;;;15.70;94.50;;;;;;5044321;28;20079;-83
2022/05/01 10:08:57;;;;;;;10.90;7.28;;;15.70;94.80;;;;;;5043212;28;20040;-84
2022/05/01 10:11:29;;;;;;;8.85;6.43;;;15.70;94.00;;;;;;5059326;28;20056;-81
2022/05/01 10:13:55;;;;;;;10.68;6.68;;;15.60;94.40;;;;;;5060194;28;20036;-82
2022/05/01 10:16:21;;;;;;;14.27;6.22;;;15.50;94.30;;;;;;5064000;28;20029;-82
2022/05/01 10:18:47;;;;;;;9.73;6.32;;;;;;;;;;5062822;28;20533;-83
2022/05/01 10:21:13;;;;;;;10.55;6.38;;;;;;;;;;5042471;28;20032;-85
2022/05/01 10:23:40;;;;;;;9.95;6.60;;;16.20;92.80;;;;;;5062589;28;20075;-85
2022/05/01 10:26:13;;;;;;;10.82;6.53;;;16.10;92.80;;;;;;5040692;28;20092;-84
2022/05/01 10:28:42;;;;;;;9.15;6.47;;;16.00;92.90;;;;;;5050153;28;20029;-85
2022/05/01 10:34:18;;;;;;;10.07;6.38;;;16.50;92.20;;;;;;5061196;28;20108;-84
2022/05/01 10:37:04;;;;;;;10.23;6.70;;;16.70;91.90;;;;;;5061775;28;20040;-85
2022/05/01 10:39:34;;;;;;;12.25;6.50;;;16.70;92.20;;;;;;5053649;28;20034;-85
2022/05/01 10:42:01;;;;;;;12.20;6.22;;;;;;;;;;5057605;28;20044;-85
2022/05/01 10:44:30;;;;;;;10.15;6.32;;;17.20;91.20;;;;;;5062746;28;20025;-83
2022/05/01 10:46:58;;;;;;;12.35;6.30;;;;;;;;;;5059863;28;20056;-83
2022/05/01 10:49:36;;;;;;;11.02;6.35;;;17.30;90.90;;;;;;5044774;28;20095;-86
2022/05/01 10:52:21;;;;;;;11.38;6.43;;;17.50;90.80;;;;;;5035669;28;20064;-84
2022/05/01 10:55:00;;;;;;;9.50;6.45;;;17.20;90.80;;;;;;5048713;28;20025;-84
2022/05/01 10:57:26;;;;;;;9.68;6.93;;;17.20;90.90;;;;;;5067893;28;20025;-84
2022/05/01 11:00:05;;;;;;;9.52;5.95;;;17.50;90.30;;;;;;5067833;28;20086;-83
2022/05/01 11:02:48;;;;;;;8.38;6.10;;;;;;;;;;5065796;28;20085;-83
2022/05/01 11:05:41;;;;;;;9.68;6.57;;;17.60;89.70;;;;;;5059432;28;20434;-85
2022/05/01 11:08:19;;;;;;;11.40;6.47;;;17.60;89.60;;;;;;5054019;28;20515;-87
2022/05/01 11:10:47;;;;;;;10.65;6.30;;;17.60;88.80;;;;;;5048378;28;20032;-85
2022/05/01 11:13:16;;;;;;;11.55;6.38;;;17.60;88.30;;;;;;5065495;28;20031;-83
2022/05/01 11:15:49;;;;;;;8.55;5.55;;;17.60;88.90;;;;;;5056015;28;20089;-83
2022/05/01 11:18:15;;;;;;;10.77;6.90;;;;;;;;;;5069678;28;20020;-87
2022/05/01 11:20:43;;;;;;;12.20;5.90;;;;;;;;;;5066761;28;20025;-83
2022/05/01 11:23:33;;;;;;;9.65;5.70;;;17.60;88.40;;;;;;5030287;28;20419;-86
2022/05/01 11:26:16;;;;;;;11.82;6.63;;;17.70;89.60;;;;;;5037376;28;20045;-84
2022/05/01 11:28:43;;;;;;;9.13;5.75;;;;;;;;;;5048878;28;20037;-83
2022/05/01 11:31:36;;;;;;;10.88;6.25;;;17.90;87.20;;;;;;5046693;28;20029;-83
2022/05/01 11:34:17;;;;;;;11.10;6.32;;;18.20;86.50;;;;;;5068725;28;20040;-83
2022/05/01 11:37:02;;;;;;;9.73;5.97;;;18.30;86.20;;;;;;5069485;28;20029;-81
2022/05/01 11:39:49;;;;;;;7.75;5.88;;;18.40;86.10;;;;;;5078309;28;20013;-86
2022/05/01 11:42:29;;;;;;;9.63;6.05;;;18.50;85.80;;;;;;5065407;28;20040;-85
2022/05/01 11:44:56;;;;;;;;;;;18.50;85.50;;;;;;5058163;28;20028;-82
2022/05/01 11:47:26;;;;;;;8.43;5.38;;;18.40;84.70;;;;;;5068599;28;19917;-83
2022/05/01 11:49:52;;;;;;;;;;;18.20;85.70;;;;;;5065015;28;20027;-83
2022/05/01 11:52:19;;;;;;;14.00;7.78;;;18.10;85.70;;;;;;5044225;28;19932;-84
2022/05/01 11:54:50;;;;;;;8.80;5.80;;;17.70;86.50;;;;;;5042786;28;20032;-84
2022/05/01 12:03:02;;;;;;;12.25;6.90;;;17.90;86.10;;;;;;5063750;28;20120;-83
2022/05/01 12:05:43;;;;;;;9.32;6.13;;;17.20;86.70;;;;;;5063617;28;20103;-86
2022/05/01 12:08:09;;;;;;;6.97;5.32;;;;;;;;;;5036498;28;20108;-83
2022/05/01 12:10:43;;;;;;;7.80;5.40;;;17.00;87.90;;;;;;5044851;28;20072;-84
2022/05/01 12:13:23;;;;;;;11.02;5.68;;;16.90;89.20;;;;;;5053695;28;20037;-84
2022/05/01 12:15:50;;;;;;;7.22;5.07;;;17.10;89.20;;;;;;5064815;28;20093;-84
2022/05/01 12:18:17;;;;;;;7.80;5.30;;;;;;;;;;5058088;28;20024;-85
2022/05/01 12:20:46;;;;;;;8.10;5.05;;;;;;;;;;5069206;28;20041;-87
2022/05/01 12:23:18;;;;;;;9.65;5.35;;;17.70;87.00;;;;;;5045153;28;20033;-81
2022/05/01 12:25:50;;;;;;;7.30;4.85;;;17.70;86.60;;;;;;5056247;28;20029;-83
2022/05/01 12:28:20;;;;;;;8.43;5.80;;;;;;;;;;5041547;28;20505;-85
2022/05/01 12:30:50;;;;;;;9.13;5.63;;;17.50;87.20;;;;;;5041370;28;20085;-83
2022/05/01 12:33:26;;;;;;;8.32;4.80;;;17.50;87.40;;;;;;5037832;28;20029;-86
2022/05/01 12:35:55;;;;;;;10.07;5.00;;;17.20;88.50;;;;;;5042354;28;20029;-82
2022/05/01 12:38:22;;;;;;;7.80;5.00;;;17.10;88.50;;;;;;5057693;28;20029;-84
2022/05/01 12:43:50;;;;;;;8.10;5.10;;;17.20;90.00;;;;;;5051583;28;20047;-82
2022/05/01 12:46:23;;;;;;;11.77;5.97;;;17.40;88.20;;;;;;5036083;28;20131;-82
2022/05/01 12:48:49;;;;;;;9.15;5.72;;;17.60;88.80;;;;;;5059894;28;20033;-84
2022/05/01 12:51:15;;;;;;;7.68;4.78;;;;;;;;;;5040581;28;20055;-84
2022/05/01 12:53:42;;;;;;;9.55;5.22;;;;;;;;;;5060968;28;20025;-83
2022/05/01 12:56:22;;;;;;;5.85;4.78;;;18.10;86.40;;;;;;5041876;28;20059;-84
2022/05/01 12:58:49;;;;;;;8.80;5.18;;;18.70;85.20;;;;;;5045163;28;20083;-81
2022/05/01 13:01:24;;;;;;;8.70;5.38;;;19.10;83.50;;;;;;5046454;28;20033;-84
2022/05/01 13:03:50;;;;;;;7.13;5.05;;;;;;;;;;5046422;28;20645;-83
2022/05/01 13:06:17;;;;;;;7.43;5.15;;;18.90;83.70;;;;;;5041732;28;20021;-84
2022/05/01 13:08:43;;;;;;;11.18;5.80;;;;;;;;;;5054293;28;20029;-86
2022/05/01 13:11:09;;;;;;;7.38;5.43;;;18.10;85.90;;;;;;5053892;28;20025;-84
2022/05/01 13:14:01;;;;;;;9.05;5.97;;;18.10;85.80;;;;;;5034908;28;20032;-84
2022/05/01 13:16:33;;;;;;;7.53;5.20;;;17.30;88.90;;;;;;5029724;28;20036;-83
2022/05/01 13:18:58;;;;;;;8.35;5.75;;;;;;;;;;5050997;28;20024;-84
2022/05/01 13:21:27;;;;;;;8.70;5.82;;;16.90;90.30;;;;;;5051742;28;20410;-84
2022/05/01 13:24:02;;;;;;;7.50;5.38;;;16.90;90.60;;;;;;5049105;28;20032;-81
2022/05/01 13:26:28;;;;;;;6.93;5.03;;;;;;;;;;5047614;28;20049;-80
2022/05/01 13:28:55;;;;;;;8.93;5.75;;;;;;;;;;5035329;28;20025;-81
2022/05/01 13:31:21;;;;;;;7.28;5.25;;;;;;;;;;5031898;28;20029;-82
2022/05/01 13:33:47;;;;;;;8.20;5.88;;;;;;;;;;5033895;28;20036;-83
2022/05/01 13:36:14;;;;;;;12.27;5.80;;;;;;;;;;5037513;28;20025;-80
2022/05/01 13:38:40;;;;;;;8.18;5.53;;;17.30;89.30;;;;;;5033439;28;20028;-85
2022/05/01 13:46:35;;;;;;;8.40;5.43;;;17.30;89.10;;;;;;5057881;28;20764;-82